createdAt,value
2023-05-04T00:00:12.353Z,12.40
2023-05-04T00:02:38.803Z,12.00
2023-05-04T00:05:06.190Z,12.13
2023-05-04T00:07:32.873Z,12.73
2023-05-04T00:09:59.669Z,12.35
2023-05-04T00:12:26.017Z,11.75
2023-05-04T00:14:52.828Z,12.18
2023-05-04T00:17:19.174Z,12.32
2023-05-04T00:19:48.034Z,11.75
2023-05-04T00:22:14.409Z,11.93
2023-05-04T00:24:40.827Z,11.20
2023-05-04T00:27:07.217Z,10.75
2023-05-04T00:29:33.572Z,10.63
2023-05-04T00:31:59.967Z,11.60
2023-05-04T00:34:26.347Z,10.43
2023-05-04T00:36:52.738Z,11.00
2023-05-04T00:39:19.099Z,10.57
2023-05-04T00:41:45.803Z,10.40
2023-05-04T00:44:12.579Z,11.45
2023-05-04T00:46:38.925Z,10.90
2023-05-04T00:49:06.143Z,11.30
2023-05-04T00:51:32.788Z,10.68
2023-05-04T00:53:59.595Z,10.45
2023-05-04T00:56:26.141Z,10.43
2023-05-04T00:58:55.176Z,10.20
2023-05-04T01:01:22.380Z,10.23
2023-05-04T01:03:50.494Z,10.15
2023-05-04T01:06:22.748Z,9.80
2023-05-04T01:08:57.605Z,10.40
2023-05-04T01:11:32.301Z,10.52
2023-05-04T01:14:00.505Z,10.60
2023-05-04T01:16:26.935Z,10.25
2023-05-04T01:18:56.144Z,9.98
2023-05-04T01:21:22.505Z,10.43
2023-05-04T01:23:48.951Z,9.95
2023-05-04T01:26:27.395Z,9.75
2023-05-04T01:29:08.362Z,9.75
2023-05-04T01:31:36.642Z,10.20
2023-05-04T01:34:03.324Z,9.68
2023-05-04T01:36:32.609Z,10.20
2023-05-04T01:38:59.890Z,10.20
2023-05-04T01:41:26.985Z,10.13
2023-05-04T01:43:54.330Z,10.30
2023-05-04T01:46:22.862Z,9.65
2023-05-04T01:48:49.328Z,9.43
2023-05-04T01:51:18.316Z,9.18
2023-05-04T01:53:44.689Z,9.50
2023-05-04T01:56:11.242Z,9.98
2023-05-04T01:58:37.609Z,9.85
2023-05-04T02:01:04.060Z,10.20
2023-05-04T02:03:31.508Z,10.30
2023-05-04T02:05:57.991Z,9.25
2023-05-04T02:08:24.383Z,9.00
2023-05-04T02:10:50.764Z,8.80
2023-05-04T02:13:17.362Z,8.07
2023-05-04T02:15:44.070Z,8.65
2023-05-04T02:18:10.546Z,8.40
2023-05-04T02:20:36.963Z,8.20
2023-05-04T02:23:03.303Z,8.13
2023-05-04T02:25:32.121Z,8.10
2023-05-04T02:27:58.462Z,8.20
2023-05-04T02:30:24.812Z,7.22
2023-05-04T02:32:51.183Z,7.70
2023-05-04T02:35:17.590Z,7.65
2023-05-04T02:37:43.940Z,7.07
2023-05-04T02:40:10.673Z,7.65
2023-05-04T02:42:37.080Z,7.20
2023-05-04T02:45:03.780Z,7.40
2023-05-04T02:47:30.143Z,7.30
2023-05-04T02:49:56.610Z,7.35
2023-05-04T02:52:22.972Z,7.30
2023-05-04T02:54:51.257Z,6.50
2023-05-04T02:57:19.322Z,6.28
2023-05-04T02:59:46.793Z,6.10
2023-05-04T03:02:13.159Z,6.75
2023-05-04T03:04:39.642Z,5.88
2023-05-04T03:07:06.617Z,6.15
2023-05-04T03:09:32.978Z,5.93
2023-05-04T03:11:59.457Z,6.05
2023-05-04T03:14:28.318Z,6.63
2023-05-04T03:16:54.857Z,5.57
2023-05-04T03:19:22.065Z,6.13
2023-05-04T03:21:48.539Z,5.55
2023-05-04T03:24:16.848Z,5.78
2023-05-04T03:26:43.388Z,5.93
2023-05-04T03:29:10.711Z,5.18
2023-05-04T03:31:37.127Z,5.55
2023-05-04T03:34:03.536Z,6.38
2023-05-04T03:36:30.098Z,6.55
2023-05-04T03:38:56.623Z,6.85
2023-05-04T03:41:25.578Z,7.30
2023-05-04T03:43:51.903Z,8.38
2023-05-04T03:46:18.279Z,7.72
2023-05-04T03:48:44.657Z,8.77
2023-05-04T03:51:11.036Z,8.68
2023-05-04T03:53:37.459Z,8.40
2023-05-04T03:56:03.929Z,8.20
2023-05-04T03:58:32.817Z,8.45
2023-05-04T04:01:03.537Z,8.25
2023-05-04T04:03:30.894Z,8.85
2023-05-04T04:05:57.509Z,8.02
2023-05-04T04:08:23.930Z,7.60
2023-05-04T04:10:50.310Z,7.78
2023-05-04T04:13:16.809Z,8.02
2023-05-04T04:15:44.879Z,8.32
2023-05-04T04:18:13.410Z,7.07
2023-05-04T04:20:39.853Z,8.68
2023-05-04T04:23:06.274Z,7.80
2023-05-04T04:25:32.641Z,8.38
2023-05-04T04:27:59.046Z,8.35
2023-05-04T04:30:25.748Z,7.80
2023-05-04T04:32:52.234Z,7.68
2023-05-04T04:35:18.758Z,7.80
2023-05-04T04:37:45.128Z,8.60
2023-05-04T04:40:11.639Z,8.48
2023-05-04T04:42:40.364Z,9.18
2023-05-04T04:45:07.096Z,8.63
2023-05-04T04:47:33.561Z,8.88
2023-05-04T04:49:59.997Z,8.32
2023-05-04T04:52:26.487Z,8.75
2023-05-04T04:54:52.863Z,8.95
2023-05-04T04:57:19.268Z,8.93
2023-05-04T04:59:46.384Z,8.57
2023-05-04T05:02:12.794Z,9.13
2023-05-04T05:04:39.383Z,8.95
2023-05-04T05:07:08.915Z,8.30
2023-05-04T05:09:38.430Z,8.60
2023-05-04T05:12:05.205Z,8.02
2023-05-04T05:14:35.127Z,8.85
2023-05-04T05:17:04.005Z,9.20
2023-05-04T05:19:30.510Z,8.88
2023-05-04T05:21:59.851Z,9.40
2023-05-04T05:24:26.261Z,9.27
2023-05-04T05:26:53.119Z,9.70
2023-05-04T05:29:19.555Z,10.10
2023-05-04T05:31:46.716Z,9.90
2023-05-04T05:34:13.110Z,9.38
2023-05-04T05:36:39.682Z,9.65
2023-05-04T05:39:06.012Z,9.15
2023-05-04T05:41:32.405Z,9.48
2023-05-04T05:43:59.355Z,9.45
2023-05-04T05:46:26.033Z,9.90
2023-05-04T05:48:52.447Z,9.38
2023-05-04T05:51:18.851Z,10.48
2023-05-04T05:53:45.272Z,9.32
2023-05-04T05:56:12.979Z,9.13
2023-05-04T05:58:39.588Z,8.38
2023-05-04T06:01:08.233Z,8.13
2023-05-04T06:03:34.716Z,8.52
2023-05-04T06:06:01.137Z,8.23
2023-05-04T06:08:27.499Z,8.18
2023-05-04T06:10:54.567Z,8.05
2023-05-04T06:13:21.132Z,8.98
2023-05-04T06:15:51.133Z,9.77
2023-05-04T06:18:17.616Z,9.10
2023-05-04T06:20:44.157Z,9.18
2023-05-04T06:23:10.501Z,9.07
2023-05-04T06:25:36.865Z,9.32
2023-05-04T06:28:03.939Z,8.80
2023-05-04T06:30:30.344Z,8.65
2023-05-04T06:32:56.768Z,9.68
2023-05-04T06:35:23.199Z,9.07
2023-05-04T06:40:20.829Z,8.82
2023-05-04T06:42:47.252Z,8.85
2023-05-04T06:45:13.631Z,9.63
2023-05-04T06:47:40.114Z,8.95
2023-05-04T06:50:07.304Z,8.73
2023-05-04T06:52:33.654Z,9.15
2023-05-04T06:55:01.680Z,8.20
2023-05-04T06:57:29.345Z,8.35
2023-05-04T06:59:55.675Z,8.48
2023-05-04T07:02:24.478Z,8.88
2023-05-04T07:04:52.611Z,8.05
2023-05-04T07:07:19.351Z,8.70
2023-05-04T07:09:47.899Z,8.77
2023-05-04T07:12:14.353Z,7.82
2023-05-04T07:14:40.825Z,8.18
2023-05-04T07:17:09.557Z,7.97
2023-05-04T07:19:36.739Z,8.15
2023-05-04T07:22:04.225Z,8.48
2023-05-04T07:24:33.000Z,8.00
2023-05-04T07:26:59.392Z,7.75
2023-05-04T07:29:26.465Z,7.32
2023-05-04T07:31:52.912Z,7.93
2023-05-04T07:34:20.166Z,7.40
2023-05-04T07:36:46.756Z,7.88
2023-05-04T07:39:13.423Z,8.30
2023-05-04T07:41:39.810Z,7.35
2023-05-04T07:44:08.526Z,7.03
2023-05-04T07:46:35.024Z,8.15
2023-05-04T07:49:01.513Z,7.93
2023-05-04T07:51:27.891Z,8.35
2023-05-04T07:53:54.301Z,7.72
2023-05-04T07:56:21.399Z,7.38
2023-05-04T07:58:49.905Z,7.25
2023-05-04T08:01:16.425Z,7.03
2023-05-04T08:03:42.849Z,7.47
2023-05-04T08:06:09.250Z,7.72
2023-05-04T08:08:35.778Z,7.47
2023-05-04T08:11:15.728Z,7.38
2023-05-04T08:13:48.384Z,7.72
2023-05-04T08:16:14.826Z,7.97
2023-05-04T08:18:41.238Z,8.07
2023-05-04T08:21:07.801Z,8.20
2023-05-04T08:23:34.178Z,8.10
2023-05-04T08:26:04.560Z,8.68
2023-05-04T08:28:31.250Z,8.75
2023-05-04T08:30:57.902Z,8.00
2023-05-04T08:33:24.294Z,8.32
2023-05-04T08:35:53.198Z,8.23
2023-05-04T08:38:19.662Z,7.97
2023-05-04T08:40:46.157Z,7.95
2023-05-04T08:43:12.788Z,7.70
2023-05-04T08:45:41.662Z,7.80
2023-05-04T08:48:10.250Z,7.00
2023-05-04T08:50:37.459Z,7.50
2023-05-04T08:53:07.489Z,7.38
2023-05-04T08:55:35.886Z,7.50
2023-05-04T08:58:04.669Z,7.18
2023-05-04T09:00:33.073Z,6.80
2023-05-04T09:02:59.924Z,6.53
2023-05-04T09:05:27.124Z,6.20
2023-05-04T09:07:53.521Z,6.10
2023-05-04T09:10:20.270Z,6.28
2023-05-04T09:12:47.259Z,5.95
2023-05-04T09:15:19.761Z,5.97
2023-05-04T09:17:58.312Z,5.90
2023-05-04T09:20:25.794Z,5.10
2023-05-04T09:23:02.539Z,5.32
2023-05-04T09:25:28.968Z,5.50
2023-05-04T09:27:56.145Z,5.60
2023-05-04T09:30:22.551Z,6.10
2023-05-04T09:32:49.504Z,5.50
2023-05-04T09:35:33.210Z,5.00
2023-05-04T09:38:00.333Z,4.80
2023-05-04T09:40:45.999Z,4.75
2023-05-04T09:43:17.384Z,4.93
2023-05-04T09:45:47.013Z,5.35
2023-05-04T09:48:22.081Z,4.72
2023-05-04T09:50:54.874Z,4.35
2023-05-04T09:53:23.298Z,4.68
2023-05-04T09:55:55.080Z,4.90
2023-05-04T09:58:22.081Z,4.40
2023-05-04T10:00:48.905Z,4.45
2023-05-04T10:03:15.539Z,4.35
2023-05-04T10:05:42.084Z,4.50
2023-05-04T10:08:08.631Z,4.00
2023-05-04T10:10:35.846Z,4.30
2023-05-04T10:13:02.306Z,4.28
2023-05-04T10:15:28.948Z,4.15
2023-05-04T10:18:27.829Z,4.10
2023-05-04T10:21:03.573Z,4.40
2023-05-04T10:23:52.820Z,4.35
2023-05-04T10:26:20.398Z,4.10
2023-05-04T10:29:04.994Z,4.47
2023-05-04T10:31:41.050Z,4.97
2023-05-04T10:34:07.782Z,4.38
2023-05-04T10:36:41.705Z,4.53
2023-05-04T10:39:20.569Z,3.80
2023-05-04T10:42:03.966Z,4.00
2023-05-04T10:44:31.403Z,3.80
2023-05-04T10:47:03.345Z,4.18
2023-05-04T10:49:29.887Z,3.85
2023-05-04T10:52:09.838Z,4.07
2023-05-04T10:54:37.032Z,4.18
2023-05-04T10:57:04.770Z,3.90
2023-05-04T10:59:31.640Z,3.67
2023-05-04T11:02:00.405Z,4.18
2023-05-04T11:04:29.548Z,4.00
2023-05-04T11:07:06.064Z,4.07
2023-05-04T11:09:41.936Z,4.43
2023-05-04T11:12:11.538Z,4.05
2023-05-04T11:14:42.723Z,3.72
2023-05-04T11:19:50.941Z,3.58
2023-05-04T11:22:20.602Z,3.50
2023-05-04T11:24:48.519Z,3.30
2023-05-04T11:27:25.272Z,3.70
2023-05-04T11:29:57.665Z,4.07
2023-05-04T11:32:38.024Z,3.43
2023-05-04T11:35:07.966Z,3.50
2023-05-04T11:37:39.294Z,3.55
2023-05-04T11:40:13.319Z,3.28
2023-05-04T11:42:40.514Z,3.58
2023-05-04T11:45:28.205Z,3.40
2023-05-04T11:47:56.702Z,3.30
2023-05-04T11:50:23.553Z,3.13
2023-05-04T11:52:50.050Z,3.80
2023-05-04T11:55:27.422Z,3.80
2023-05-04T11:58:00.576Z,3.90
2023-05-04T12:00:49.105Z,3.90
2023-05-04T12:03:16.990Z,4.13
2023-05-04T12:05:47.061Z,3.65
2023-05-04T12:08:26.929Z,3.85
2023-05-04T12:11:09.744Z,3.42
2023-05-04T12:13:36.410Z,4.00
2023-05-04T12:16:15.121Z,3.58
2023-05-04T12:18:45.446Z,4.00
2023-05-04T12:21:17.556Z,3.80
2023-05-04T12:23:44.457Z,3.60
2023-05-04T12:26:11.221Z,4.13
2023-05-04T12:28:38.000Z,3.80
2023-05-04T12:31:05.085Z,4.07
2023-05-04T12:33:32.128Z,4.20
2023-05-04T12:36:01.172Z,4.30
2023-05-04T12:38:30.108Z,3.78
2023-05-04T12:40:59.024Z,4.35
2023-05-04T12:43:25.529Z,4.47
2023-05-04T12:45:54.464Z,3.78
2023-05-04T12:48:21.029Z,3.58
2023-05-04T12:50:48.704Z,4.25
2023-05-04T12:53:17.562Z,4.03
2023-05-04T12:55:44.062Z,3.92
2023-05-04T12:58:10.545Z,3.95
2023-05-04T13:00:37.689Z,4.88
2023-05-04T13:03:07.350Z,4.07
2023-05-04T13:05:33.828Z,3.78
2023-05-04T13:08:00.201Z,3.80
2023-05-04T13:10:27.057Z,3.75
2023-05-04T13:12:53.550Z,4.15
2023-05-04T13:15:19.949Z,3.50
2023-05-04T13:17:48.812Z,3.80
2023-05-04T13:20:15.777Z,3.85
2023-05-04T13:22:42.589Z,3.92
2023-05-04T13:25:09.300Z,3.83
2023-05-04T13:27:35.921Z,3.38
2023-05-04T13:30:03.909Z,3.50
2023-05-04T13:32:31.277Z,3.33
2023-05-04T13:34:57.836Z,3.40
2023-05-04T13:37:24.252Z,3.78
2023-05-04T13:39:50.841Z,3.33
2023-05-04T13:42:17.928Z,3.80
2023-05-04T13:44:48.310Z,3.92
2023-05-04T13:47:16.122Z,3.42
2023-05-04T13:49:42.706Z,3.92
2023-05-04T13:52:09.097Z,3.50
2023-05-04T13:54:36.354Z,3.20
2023-05-04T13:57:02.898Z,2.83
2023-05-04T13:59:29.589Z,3.35
2023-05-04T14:01:56.426Z,3.40
2023-05-04T14:04:23.193Z,3.60
2023-05-04T14:06:50.375Z,3.05
2023-05-04T14:09:17.078Z,2.70
2023-05-04T14:11:43.444Z,3.20
2023-05-04T14:14:09.844Z,3.30
2023-05-04T14:16:37.617Z,3.15
2023-05-04T14:19:04.155Z,2.67
2023-05-04T14:21:30.505Z,2.75
2023-05-04T14:23:56.907Z,3.13
2023-05-04T14:26:23.312Z,2.72
2023-05-04T14:28:49.723Z,2.90
2023-05-04T14:31:16.176Z,2.80
2023-05-04T14:33:42.833Z,3.22
2023-05-04T14:36:12.297Z,2.80
2023-05-04T14:38:38.712Z,2.88
2023-05-04T14:41:05.460Z,3.00
2023-05-04T14:43:32.442Z,3.50
2023-05-04T14:45:58.888Z,3.20
2023-05-04T14:48:26.472Z,2.67
2023-05-04T14:50:56.023Z,2.85
2023-05-04T14:53:23.243Z,3.22
2023-05-04T14:55:50.046Z,3.33
2023-05-04T14:58:16.885Z,3.13
2023-05-04T15:00:44.361Z,3.10
2023-05-04T15:03:11.014Z,2.90
2023-05-04T15:05:37.560Z,3.10
2023-05-04T15:08:04.204Z,3.65
2023-05-04T15:10:30.985Z,3.20
2023-05-04T15:12:59.176Z,3.05
2023-05-04T15:15:25.744Z,2.88
2023-05-04T15:17:52.171Z,3.05
2023-05-04T15:20:18.600Z,3.08
2023-05-04T15:22:51.676Z,2.65
2023-05-04T15:25:23.326Z,2.70
2023-05-04T15:27:49.752Z,2.60
2023-05-04T15:30:16.591Z,2.70
2023-05-04T15:32:43.009Z,2.92
2023-05-04T15:35:09.537Z,2.83
2023-05-04T15:37:36.008Z,2.45
2023-05-04T15:40:04.487Z,2.40
2023-05-04T15:42:31.252Z,2.40
2023-05-04T15:45:00.204Z,2.70
2023-05-04T15:47:26.843Z,2.40
2023-05-04T15:49:53.387Z,2.40
2023-05-04T15:52:19.782Z,2.70
2023-05-04T15:54:47.325Z,2.80
2023-05-04T15:57:14.936Z,2.33
2023-05-04T15:59:41.433Z,1.90
2023-05-04T16:02:08.167Z,2.03
2023-05-04T16:04:34.531Z,2.03
2023-05-04T16:07:01.167Z,2.10
2023-05-04T16:09:30.027Z,2.08
2023-05-04T16:11:56.387Z,1.88
2023-05-04T16:14:25.227Z,1.95
2023-05-04T16:16:51.606Z,1.80
2023-05-04T16:19:18.061Z,2.30
2023-05-04T16:21:44.541Z,2.05
2023-05-04T16:24:12.927Z,1.80
2023-05-04T16:26:40.122Z,2.00
2023-05-04T16:29:06.857Z,1.80
2023-05-04T16:31:33.319Z,1.90
2023-05-04T16:34:00.122Z,1.83
2023-05-04T16:36:31.625Z,1.67
2023-05-04T16:38:58.050Z,1.45
2023-05-04T16:41:24.423Z,1.80
2023-05-04T16:43:51.733Z,1.67
2023-05-04T16:46:18.108Z,1.50
2023-05-04T16:48:44.668Z,1.55
2023-05-04T16:51:11.057Z,1.50
2023-05-04T16:53:39.926Z,1.73
2023-05-04T16:56:06.503Z,1.70
2023-05-04T16:58:32.985Z,1.30
2023-05-04T17:00:59.514Z,1.35
2023-05-04T17:03:25.995Z,1.17
2023-05-04T17:05:52.716Z,1.27
2023-05-04T17:08:19.071Z,1.60
2023-05-04T17:10:45.463Z,1.15
2023-05-04T17:13:11.924Z,1.35
2023-05-04T17:15:38.340Z,1.40
2023-05-04T17:18:07.290Z,1.42
2023-05-04T17:20:33.730Z,1.50
2023-05-04T17:23:00.466Z,1.50
2023-05-04T17:25:27.280Z,1.48
2023-05-04T17:27:54.069Z,1.55
2023-05-04T17:30:20.692Z,1.48
2023-05-04T17:32:48.564Z,1.40
2023-05-04T17:35:23.984Z,1.40
2023-05-04T17:37:51.433Z,1.30
2023-05-04T17:40:17.960Z,1.55
2023-05-04T17:42:44.321Z,1.45
2023-05-04T17:45:10.789Z,1.65
2023-05-04T17:47:37.272Z,1.60
2023-05-04T17:50:04.035Z,1.70
2023-05-04T17:52:30.451Z,1.80
2023-05-04T17:54:56.851Z,1.63
2023-05-04T17:57:23.233Z,1.65
2023-05-04T17:59:49.733Z,1.60
2023-05-04T18:02:18.617Z,1.75
2023-05-04T18:04:45.032Z,1.60
2023-05-04T18:07:11.399Z,1.60
2023-05-04T18:09:40.361Z,1.80
2023-05-04T18:12:06.803Z,1.80
2023-05-04T18:14:33.274Z,1.95
2023-05-04T18:16:59.667Z,1.38
2023-05-04T18:19:27.781Z,1.58
2023-05-04T18:21:54.477Z,1.80
2023-05-04T18:24:20.872Z,1.48
2023-05-04T18:26:48.356Z,1.70
2023-05-04T18:29:18.917Z,1.58
2023-05-04T18:31:46.089Z,1.73
2023-05-04T18:34:12.530Z,1.77
2023-05-04T18:36:38.920Z,1.60
2023-05-04T18:39:05.323Z,1.60
2023-05-04T18:41:34.292Z,2.00
2023-05-04T18:44:03.589Z,1.80
2023-05-04T18:46:29.958Z,2.00
2023-05-04T18:48:56.437Z,2.17
2023-05-04T18:51:22.871Z,2.03
2023-05-04T18:53:51.827Z,1.80
2023-05-04T18:56:18.239Z,2.10
2023-05-04T18:58:47.225Z,2.50
2023-05-04T19:01:13.698Z,2.50
2023-05-04T19:03:40.387Z,2.40
2023-05-04T19:06:06.915Z,2.63
2023-05-04T19:08:35.867Z,3.60
2023-05-04T19:11:05.155Z,2.60
2023-05-04T19:13:31.551Z,2.13
2023-05-04T19:15:58.004Z,2.10
2023-05-04T19:18:24.651Z,2.53
2023-05-04T19:20:54.526Z,2.80
2023-05-04T19:23:20.987Z,1.98
2023-05-04T19:25:48.254Z,1.90
2023-05-04T19:28:14.617Z,1.83
2023-05-04T19:30:41.668Z,2.20
2023-05-04T19:33:11.121Z,2.20
2023-05-04T19:35:37.923Z,1.88
2023-05-04T19:38:06.708Z,2.10
2023-05-04T19:40:33.770Z,2.17
2023-05-04T19:43:00.325Z,2.33
2023-05-04T19:45:26.729Z,2.63
2023-05-04T19:47:53.215Z,2.50
2023-05-04T19:50:19.789Z,2.10
2023-05-04T19:52:46.153Z,2.85
2023-05-04T19:55:12.670Z,9.32
2023-05-04T19:57:39.254Z,13.52
2023-05-04T20:00:06.248Z,12.48
2023-05-04T20:02:32.866Z,6.00
2023-05-04T20:04:59.334Z,4.38
2023-05-04T20:07:26.109Z,3.97
2023-05-04T20:09:52.488Z,3.42
2023-05-04T20:12:18.854Z,3.55
2023-05-04T20:14:45.190Z,3.08
2023-05-04T20:17:14.429Z,3.60
2023-05-04T20:19:42.933Z,3.20
2023-05-04T20:22:09.435Z,2.85
2023-05-04T20:24:36.001Z,3.13
2023-05-04T20:27:04.771Z,3.33
2023-05-04T20:29:33.737Z,3.58
2023-05-04T20:32:01.543Z,3.42
2023-05-04T20:34:28.090Z,3.25
2023-05-04T20:36:54.507Z,3.33
2023-05-04T20:39:21.592Z,3.30
2023-05-04T20:41:50.433Z,2.75
2023-05-04T20:44:19.296Z,3.00
2023-05-04T20:46:45.734Z,3.33
2023-05-04T20:49:12.279Z,3.25
2023-05-04T20:51:38.735Z,3.45
2023-05-04T20:54:05.258Z,3.35
2023-05-04T20:56:31.651Z,3.20
2023-05-04T20:58:58.076Z,2.92
2023-05-04T21:01:24.542Z,3.70
2023-05-04T21:03:51.250Z,3.80
2023-05-04T21:06:17.813Z,3.58
2023-05-04T21:08:44.321Z,3.28
2023-05-04T21:11:10.799Z,3.80
2023-05-04T21:13:37.171Z,3.67
2023-05-04T21:16:06.334Z,3.85
2023-05-04T21:18:33.043Z,3.95
2023-05-04T21:20:59.441Z,3.60
2023-05-04T21:23:26.319Z,4.00
2023-05-04T21:25:59.806Z,4.82
2023-05-04T21:28:26.135Z,5.15
2023-05-04T21:30:52.518Z,4.07
2023-05-04T21:33:18.863Z,3.90
2023-05-04T21:35:45.309Z,3.70
2023-05-04T21:38:12.791Z,3.83
2023-05-04T21:40:39.163Z,3.28
2023-05-04T21:43:05.556Z,3.50
2023-05-04T21:45:32.332Z,3.67
2023-05-04T21:47:59.071Z,3.25
2023-05-04T21:50:26.314Z,3.65
2023-05-04T21:52:52.731Z,4.00
2023-05-04T21:55:19.131Z,4.20
2023-05-04T21:57:48.008Z,4.10
2023-05-04T22:00:18.167Z,4.03
2023-05-04T22:02:45.015Z,4.00
2023-05-04T22:05:11.542Z,4.13
2023-05-04T22:07:38.032Z,4.10
2023-05-04T22:10:04.732Z,4.38
2023-05-04T22:12:31.260Z,4.20
2023-05-04T22:14:57.724Z,4.13
2023-05-04T22:17:24.174Z,4.18
2023-05-04T22:19:53.007Z,4.68
2023-05-04T22:22:19.450Z,4.18
2023-05-04T22:24:45.836Z,3.83
2023-05-04T22:27:12.369Z,3.92
2023-05-04T22:29:38.831Z,3.92
2023-05-04T22:32:05.385Z,3.50
2023-05-04T22:34:31.854Z,4.22
2023-05-04T22:36:58.299Z,3.90
2023-05-04T22:39:24.987Z,3.75
2023-05-04T22:41:51.376Z,4.00
2023-05-04T22:44:17.791Z,3.40
2023-05-04T22:46:44.239Z,3.90
2023-05-04T22:49:10.682Z,4.07
2023-05-04T22:51:37.097Z,3.80
2023-05-04T22:54:03.845Z,3.95
2023-05-04T22:56:30.962Z,4.75
2023-05-04T22:58:57.469Z,5.65
2023-05-04T23:01:24.213Z,7.05
2023-05-04T23:03:51.337Z,7.22
2023-05-04T23:06:17.995Z,9.63
2023-05-04T23:08:46.975Z,10.60
2023-05-04T23:11:13.392Z,12.45
2023-05-04T23:13:39.785Z,10.90
2023-05-04T23:16:06.440Z,9.80
2023-05-04T23:18:33.111Z,6.53
2023-05-04T23:20:59.564Z,5.90
2023-05-04T23:23:25.963Z,4.90
2023-05-04T23:25:52.384Z,5.60
2023-05-04T23:28:18.827Z,4.88
2023-05-04T23:30:45.435Z,5.15
2023-05-04T23:33:14.220Z,4.75
2023-05-04T23:35:40.616Z,4.95
2023-05-04T23:38:07.139Z,5.30
2023-05-04T23:40:36.045Z,4.95
2023-05-04T23:43:02.434Z,4.80
2023-05-04T23:45:28.820Z,4.70
2023-05-04T23:47:55.240Z,5.20
2023-05-04T23:50:26.758Z,5.13
2023-05-04T23:52:53.098Z,4.57
2023-05-04T23:55:19.564Z,5.15
2023-05-04T23:57:46.556Z,4.80
